Time;durP1;ratioP1;P1;durP2;ratioP2;P2;SDS_P1;SDS_P2;PMS_P1;PMS_P2;Temp;Humidity;BMP_temperature;BMP_pressure;BME280_temperature;BME280_humidity;BME280_pressure;Samples;Min_cycle;Max_cycle;Signal;HPM_P1;HPM_P2
2023/04/13 00:01:22;;;;;;;0.93;0.50;;;;;;;7.21;100.00;153211.78;5061727;28;20443;-75
2023/04/13 00:03:48;;;;;;;1.20;0.60;;;;;;;7.12;100.00;153189.81;5067698;28;20453;-75
2023/04/13 00:06:15;;;;;;;0.80;0.60;;;;;;;7.13;100.00;153192.41;5088072;28;20454;-75
2023/04/13 00:08:43;;;;;;;0.80;0.40;;;;;;;7.11;100.00;153187.25;5062218;28;20458;-75
2023/04/13 00:11:12;;;;;;;0.93;0.50;;;;;;;7.09;100.00;153182.09;5066380;28;20457;-75
2023/04/13 00:13:41;;;;;;;1.07;0.50;;;;;;;7.04;100.00;153169.16;5055303;28;20442;-75
2023/04/13 00:16:09;;;;;;;1.07;0.60;;;;;;;6.99;100.00;153156.25;5059547;28;20489;-75
2023/04/13 00:18:36;;;;;;;1.00;0.60;;;;;;;6.96;100.00;153148.53;5054197;28;20523;-75
2023/04/13 00:21:03;;;;;;;1.10;0.60;;;;;;;6.94;100.00;153143.34;5086878;28;20441;-75
2023/04/13 00:23:30;;;;;;;1.10;0.60;;;;;;;6.86;100.00;153122.69;5089400;28;20450;-75
2023/04/13 00:25:57;;;;;;;2.00;0.70;;;;;;;6.90;100.00;153133.03;5054505;28;20465;-75
2023/04/13 00:28:25;;;;;;;0.90;0.53;;;;;;;6.89;100.00;153130.44;5068549;28;20567;-75
2023/04/13 00:30:52;;;;;;;0.83;0.50;;;;;;;6.92;100.00;153138.19;5075983;28;20461;-75
2023/04/13 00:33:19;;;;;;;1.43;0.57;;;;;;;6.90;100.00;153133.03;5053269;28;20528;-75
2023/04/13 00:35:46;;;;;;;0.90;0.60;;;;;;;6.91;100.00;153135.59;5078677;28;20481;-75
2023/04/13 00:38:12;;;;;;;1.30;0.83;;;;;;;6.88;100.00;153127.88;5069888;28;20470;-75
2023/04/13 00:40:39;;;;;;;1.37;0.60;;;;;;;6.91;100.00;153135.59;5074273;28;20496;-75
2023/04/13 00:43:06;;;;;;;0.87;0.47;;;;;;;6.91;100.00;153135.59;5091177;28;20540;-75
2023/04/13 00:45:37;;;;;;;1.67;1.00;;;;;;;6.91;100.00;153134.34;5059395;28;20477;-75
2023/04/13 00:48:05;;;;;;;1.20;0.60;;;;;;;6.93;100.00;153140.78;5076321;28;20533;-75
2023/04/13 00:50:33;;;;;;;1.40;1.10;;;;;;;6.88;100.00;153127.88;5086078;28;20784;-75
2023/04/13 00:53:00;;;;;;;1.37;0.50;;;;;;;6.90;100.00;153133.03;5069590;28;20545;-76
2023/04/13 00:55:27;;;;;;;1.17;0.77;;;;;;;6.86;100.00;153122.69;5089892;28;20837;-76
2023/04/13 00:57:54;;;;;;;1.00;0.63;;;;;;;6.86;100.00;153122.69;5059613;28;20459;-76
2023/04/13 01:00:23;;;;;;;0.90;0.63;;;;;;;6.84;100.00;153117.53;5070990;28;20956;-75
2023/04/13 01:02:52;;;;;;;1.00;0.60;;;;;;;6.81;100.00;153109.78;5083175;28;20523;-77
2023/04/13 01:05:18;;;;;;;0.90;0.50;;;;;;;6.83;100.00;153114.94;5061783;28;20446;-76
2023/04/13 01:07:54;;;;;;;0.90;0.60;;;;;;;6.78;100.00;153102.03;5058089;28;20980;-76
2023/04/13 01:10:26;;;;;;;1.00;0.60;;;;;;;6.78;100.00;153102.03;5066351;28;20450;-76
2023/04/13 01:13:01;;;;;;;1.27;0.60;;;;;;;6.75;100.00;153094.31;5071286;28;20442;-76
2023/04/13 01:15:31;;;;;;;0.90;0.53;;;;;;;6.73;100.00;153089.13;5048366;28;20469;-76
2023/04/13 01:18:04;;;;;;;0.80;0.40;;;;;;;6.72;100.00;153086.56;5067553;28;20444;-75
2023/04/13 01:20:31;;;;;;;1.00;0.57;;;;;;;6.66;100.00;153071.06;5070819;28;20450;-75
2023/04/13 01:22:59;;;;;;;1.10;0.60;;;;;;;6.64;100.00;153067.22;5075642;28;20531;-76
2023/04/13 01:25:38;;;;;;;1.40;0.50;;;;;;;6.59;100.00;153054.28;5063757;28;20533;-75
2023/04/13 01:28:08;;;;;;;0.87;0.47;;;;;;;6.59;100.00;153053.00;5066698;28;20454;-75
2023/04/13 01:30:36;;;;;;;1.20;0.80;;;;;;;6.52;100.00;153034.91;5044367;28;20452;-75
2023/04/13 01:33:05;;;;;;;0.90;0.50;;;;;;;6.50;100.00;153029.75;5062334;28;20458;-75
2023/04/13 01:35:34;;;;;;;1.23;0.80;;;;;;;6.49;100.00;153028.47;5039100;28;20446;-75
2023/04/13 01:38:01;;;;;;;1.10;0.60;;;;;;;6.49;100.00;153027.16;5062566;28;20523;-75
2023/04/13 01:40:31;;;;;;;1.17;0.60;;;;;;;6.45;100.00;153016.88;5054396;28;20971;-75
2023/04/13 01:42:58;;;;;;;1.37;0.60;;;;;;;6.47;100.00;153022.00;5071842;28;20442;-75
2023/04/13 01:45:38;;;;;;;1.20;0.60;;;;;;;6.45;100.00;153018.16;5074286;28;20532;-78
2023/04/13 01:48:10;;;;;;;1.00;0.50;;;;;;;6.39;100.00;153001.38;5052888;28;20438;-77
2023/04/13 01:50:54;;;;;;;1.97;0.67;;;;;;;6.35;100.00;152992.38;5058751;28;20451;-77
2023/04/13 01:53:37;;;;;;;3.70;0.67;;;;;;;6.26;100.00;152967.81;5040498;28;20489;-77
2023/04/13 01:56:06;;;;;;;1.37;0.70;;;;;;;6.22;100.00;152957.53;5052685;28;20475;-77
2023/04/13 01:58:35;;;;;;;1.40;1.00;;;;;;;6.17;100.00;152944.63;5052392;28;20871;-77
2023/04/13 02:01:11;;;;;;;1.00;0.60;;;;;;;6.16;100.00;152943.31;5051350;28;20475;-77
2023/04/13 02:03:38;;;;;;;1.00;0.50;;;;;;;6.13;100.00;152936.88;5045240;28;20453;-77
2023/04/13 02:06:06;;;;;;;1.37;0.80;;;;;;;6.07;100.00;152921.38;5090837;28;20861;-76
2023/04/13 02:08:35;;;;;;;1.00;0.70;;;;;;;6.01;100.00;152905.88;5047868;28;20457;-77
2023/04/13 02:11:03;;;;;;;1.10;0.73;;;;;;;6.05;100.00;152916.25;5054840;28;20450;-77
2023/04/13 02:13:30;;;;;;;0.80;0.50;;;;;;;6.09;100.00;152925.22;5048928;28;20514;-77
2023/04/13 02:15:58;;;;;;;0.90;0.50;;;;;;;6.12;100.00;152932.97;5064003;28;20976;-77
2023/04/13 02:18:26;;;;;;;0.80;0.43;;;;;;;6.07;100.00;152921.38;5072477;28;20455;-77
2023/04/13 02:21:00;;;;;;;2.07;0.80;;;;;;;6.08;100.00;152922.69;5050412;28;20945;-77
2023/04/13 02:23:27;;;;;;;1.43;0.70;;;;;;;6.04;100.00;152912.34;5026377;28;20454;-76
2023/04/13 02:25:54;;;;;;;1.40;1.00;;;;;;;6.02;100.00;152908.50;5051780;28;21253;-76
2023/04/13 02:28:21;;;;;;;1.10;0.90;;;;;;;6.06;100.00;152918.78;5038381;28;20561;-77
2023/04/13 02:30:47;;;;;;;1.20;0.60;;;;;;;6.08;100.00;152923.97;5064939;28;20553;-76
2023/04/13 02:35:57;;;;;;;1.00;0.60;;;;;;;6.09;100.00;152926.53;5033963;28;20466;-76
2023/04/13 02:38:24;;;;;;;1.37;0.70;;;;;;;6.13;100.00;152935.59;5055755;28;20458;-76
2023/04/13 02:40:54;;;;;;;1.73;0.63;;;;;;;6.11;100.00;152931.72;5055344;28;21073;-76
2023/04/13 02:43:21;;;;;;;1.10;0.73;;;;;;;6.09;100.00;152925.22;5069161;28;20983;-76
2023/04/13 02:45:48;;;;;;;1.20;0.67;;;;;;;6.14;100.00;152939.44;5064149;28;20844;-76
2023/04/13 02:48:17;;;;;;;1.47;0.90;;;;;;;6.16;100.00;152942.03;5042462;28;20500;-76
2023/04/13 02:50:44;;;;;;;4.50;0.87;;;;;;;6.14;100.00;152939.44;5051253;28;20495;-75
2023/04/13 02:53:18;;;;;;;1.60;1.00;;;;;;;6.09;100.00;152926.53;5060625;28;20463;-75
2023/04/13 02:55:50;;;;;;;1.77;0.90;;;;;;;6.10;100.00;152929.13;5058282;28;20474;-75
2023/04/13 02:58:18;;;;;;;3.47;0.80;;;;;;;6.04;100.00;152913.63;5065642;28;20536;-75
2023/04/13 03:00:49;;;;;;;1.10;0.80;;;;;;;5.98;100.00;152896.91;5074681;28;20450;-75
2023/04/13 03:03:19;;;;;;;1.87;0.80;;;;;;;5.93;100.00;152885.25;5057598;28;20546;-76
2023/04/13 03:05:49;;;;;;;1.20;0.83;;;;;;;5.94;100.00;152887.84;5062347;28;20525;-76
2023/04/13 03:08:19;;;;;;;1.47;0.87;;;;;;;5.94;100.00;152887.84;5050053;28;20447;-76
2023/04/13 03:11:05;;;;;;;1.37;0.80;;;;;;;5.91;100.00;152880.09;5063585;28;20458;-76
2023/04/13 03:13:32;;;;;;;1.00;0.70;;;;;;;5.88;100.00;152872.34;5068718;28;20546;-76
2023/04/13 03:16:00;;;;;;;1.93;0.70;;;;;;;5.86;100.00;152867.22;5066459;28;20478;-76
2023/04/13 03:18:27;;;;;;;1.20;0.87;;;;;;;5.84;100.00;152862.00;5061312;28;20483;-76
2023/04/13 03:20:54;;;;;;;1.27;0.80;;;;;;;5.86;100.00;152865.91;5027134;28;20458;-75
2023/04/13 03:23:25;;;;;;;1.10;0.63;;;;;;;5.83;100.00;152859.41;5038319;28;20532;-76
2023/04/13 03:25:52;;;;;;;1.10;0.93;;;;;;;5.79;100.00;152849.13;5064670;28;20450;-76
2023/04/13 03:28:22;;;;;;;1.60;1.00;;;;;;;5.78;100.00;152846.53;5029874;28;20451;-75
2023/04/13 03:30:49;;;;;;;1.20;0.90;;;;;;;5.75;100.00;152838.78;5029993;28;20957;-76
2023/04/13 03:33:15;;;;;;;1.40;0.97;;;;;;;5.74;100.00;152836.22;5057493;28;23449;-75
2023/04/13 03:35:42;;;;;;;1.73;0.97;;;;;;;5.79;100.00;152849.13;5045527;28;20470;-75
2023/04/13 03:38:17;;;;;;;1.67;0.90;;;;;;;5.81;100.00;152854.28;5022478;28;20466;-76
2023/04/13 03:40:48;;;;;;;1.80;0.80;;;;;;;5.82;100.00;152855.56;5037784;28;20501;-75
2023/04/13 03:43:15;;;;;;;1.07;0.80;;;;;;;5.83;100.00;152859.41;5023053;28;20533;-75
2023/04/13 03:45:46;;;;;;;1.53;1.00;;;;;;;5.86;100.00;152867.22;5063785;28;20437;-76
2023/04/13 03:48:15;;;;;;;2.60;1.43;;;;;;;5.94;100.00;152887.84;5052196;28;20455;-75
2023/04/13 03:50:42;;;;;;;1.70;0.80;;;;;;;5.95;100.00;152890.44;5026326;28;20497;-75
2023/04/13 03:53:11;;;;;;;1.47;0.93;;;;;;;5.92;100.00;152882.69;5028786;28;20672;-76
2023/04/13 03:55:40;;;;;;;2.37;1.00;;;;;;;5.95;100.00;152890.44;5040040;28;21010;-75
2023/04/13 03:58:10;;;;;;;2.03;1.17;;;;;;;5.91;100.00;152880.09;5050489;28;20580;-75
2023/04/13 04:00:36;;;;;;;2.13;0.83;;;;;;;5.90;100.00;152877.56;5035631;28;20507;-76
2023/04/13 04:03:11;;;;;;;1.83;0.90;;;;;;;5.95;100.00;152889.16;5054718;28;20456;-76
2023/04/13 04:05:50;;;;;;;1.40;0.80;;;;;;;5.93;100.00;152885.25;5033317;28;20460;-75
2023/04/13 04:08:17;;;;;;;4.13;0.90;;;;;;;5.89;100.00;152874.97;5030470;28;20463;-76
2023/04/13 04:10:45;;;;;;;2.33;0.90;;;;;;;5.91;100.00;152880.09;5049872;28;20507;-77
2023/04/13 04:13:13;;;;;;;1.83;1.00;;;;;;;5.94;100.00;152886.56;5064406;28;20443;-75
2023/04/13 04:15:45;;;;;;;2.60;1.10;;;;;;;5.93;100.00;152885.25;5063054;28;20498;-76
2023/04/13 04:18:12;;;;;;;2.40;0.80;;;;;;;5.95;100.00;152890.44;5059245;28;20853;-76
2023/04/13 04:20:40;;;;;;;1.57;1.10;;;;;;;5.94;100.00;152887.84;5034849;28;20437;-75
2023/04/13 04:23:08;;;;;;;1.10;0.80;;;;;;;5.96;100.00;152893.00;5040022;28;20844;-76
2023/04/13 04:25:44;;;;;;;2.90;0.90;;;;;;;5.96;100.00;152891.69;5059345;28;20447;-76
2023/04/13 04:28:16;;;;;;;2.33;1.27;;;;;;;5.94;100.00;152886.56;5051107;28;20473;-75
2023/04/13 04:30:52;;;;;;;1.73;1.10;;;;;;;5.94;100.00;152887.84;5049706;28;20435;-75
2023/04/13 04:33:21;;;;;;;1.87;0.83;;;;;;;5.94;100.00;152887.84;5073485;28;20550;-76
2023/04/13 04:35:50;;;;;;;2.33;1.40;;;;;;;5.95;100.00;152890.44;5066773;28;20473;-76
2023/04/13 04:38:18;;;;;;;4.33;1.30;;;;;;;5.93;100.00;152885.25;5054169;28;20477;-76
2023/04/13 04:40:45;;;;;;;1.70;0.90;;;;;;;5.93;100.00;152884.00;5039645;28;20460;-76
2023/04/13 04:43:15;;;;;;;2.07;1.30;;;;;;;5.96;100.00;152893.00;5069566;28;20456;-76
2023/04/13 04:45:50;;;;;;;2.10;1.17;;;;;;;5.94;100.00;152887.84;5064881;28;20950;-76
2023/04/13 04:48:19;;;;;;;2.13;1.30;;;;;;;5.97;100.00;152894.28;5069508;28;20454;-76
2023/04/13 04:50:47;;;;;;;1.63;1.10;;;;;;;5.94;100.00;152887.84;5045769;28;20452;-76
2023/04/13 04:53:16;;;;;;;1.50;1.10;;;;;;;5.95;100.00;152890.44;5052689;28;20455;-76
2023/04/13 04:55:45;;;;;;;3.33;1.37;;;;;;;5.93;100.00;152884.00;5067919;28;20845;-76
2023/04/13 04:58:19;;;;;;;2.40;1.00;;;;;;;5.95;100.00;152889.16;5063130;28;20482;-76
2023/04/13 05:00:52;;;;;;;1.70;0.97;;;;;;;5.90;100.00;152877.56;5070032;28;20450;-76
2023/04/13 05:03:19;;;;;;;2.83;1.00;;;;;;;5.92;100.00;152882.69;5064671;28;20478;-76
2023/04/13 05:05:50;;;;;;;2.23;1.30;;;;;;;5.92;100.00;152882.69;5067242;28;20504;-76
2023/04/13 05:08:27;;;;;;;2.43;1.13;;;;;;;5.91;100.00;152880.09;5049761;28;20453;-76
2023/04/13 05:10:54;;;;;;;1.73;1.00;;;;;;;5.94;100.00;152887.84;5043955;28;20481;-76
2023/04/13 05:13:21;;;;;;;5.23;1.27;;;;;;;5.96;100.00;152893.00;5043530;28;20509;-76
2023/04/13 05:16:04;;;;;;;2.33;0.97;;;;;;;6.00;100.00;152902.03;5032409;28;20573;-76
2023/04/13 05:18:31;;;;;;;1.23;0.93;;;;;;;5.97;100.00;152894.28;5029655;28;20470;-76
2023/04/13 05:20:58;;;;;;;2.70;1.33;;;;;;;5.99;100.00;152899.44;5031687;28;20446;-76
2023/04/13 05:23:26;;;;;;;3.10;1.17;;;;;;;6.02;100.00;152907.19;5052169;28;20494;-76
2023/04/13 05:26:01;;;;;;;1.70;1.47;;;;;;;6.04;100.00;152913.63;5056437;28;20448;-76
2023/04/13 05:28:28;;;;;;;2.27;1.83;;;;;;;6.03;100.00;152911.09;5067785;28;20453;-76
2023/04/13 05:31:01;;;;;;;6.07;1.60;;;;;;;6.03;100.00;152911.09;5071480;28;20453;-76
2023/04/13 05:33:29;;;;;;;4.10;2.30;;;;;;;6.04;100.00;152913.63;5086688;28;20958;-76
2023/04/13 05:35:57;;;;;;;3.93;1.60;;;;;;;6.06;100.00;152917.53;5073748;28;20621;-76
2023/04/13 05:38:24;;;;;;;3.03;1.43;;;;;;;6.08;100.00;152923.97;5068678;28;20982;-76
2023/04/13 05:40:52;;;;;;;2.20;1.20;;;;;;;6.10;100.00;152929.13;5072663;28;20556;-76
2023/04/13 05:43:19;;;;;;;3.07;1.07;;;;;;;6.08;100.00;152923.97;5054060;28;20556;-76
2023/04/13 05:45:49;;;;;;;2.10;1.10;;;;;;;6.10;100.00;152927.84;5049469;28;20438;-76
2023/04/13 05:48:17;;;;;;;2.33;1.40;;;;;;;6.14;100.00;152938.19;5045375;28;20548;-76
2023/04/13 05:50:46;;;;;;;2.20;1.00;;;;;;;6.09;100.00;152925.22;5054129;28;20442;-76
2023/04/13 05:53:13;;;;;;;0.90;0.70;;;;;;;6.17;100.00;152945.88;5080530;28;20461;-76
2023/04/13 05:55:46;;;;;;;3.00;1.60;;;;;;;6.10;99.66;152929.13;5071602;28;20477;-76
2023/04/13 05:58:13;;;;;;;3.20;1.43;;;;;;;6.16;100.00;152942.03;5088703;28;20820;-76
2023/04/13 06:00:41;;;;;;;4.47;1.20;;;;;;;6.19;100.00;152951.06;5063771;28;20441;-76
2023/04/13 06:03:12;;;;;;;1.90;0.93;;;;;;;6.23;100.00;152961.38;5069833;28;20965;-76
2023/04/13 06:05:40;;;;;;;2.67;1.23;;;;;;;6.21;100.00;152956.22;5090439;28;20480;-76
2023/04/13 06:08:09;;;;;;;2.83;1.20;;;;;;;6.24;100.00;152962.66;5088931;28;20536;-76
2023/04/13 06:10:38;;;;;;;2.60;1.07;;;;;;;6.24;100.00;152962.66;5082128;28;20441;-77
2023/04/13 06:13:04;;;;;;;3.13;1.53;;;;;;;6.24;100.00;152963.97;5089383;28;20449;-77
2023/04/13 06:15:31;;;;;;;1.80;0.97;;;;;;;6.33;100.00;152985.91;5070176;28;20564;-77
2023/04/13 06:17:58;;;;;;;3.63;1.50;;;;;;;6.35;100.00;152991.06;5061413;28;20843;-77
2023/04/13 06:20:25;;;;;;;5.03;1.27;;;;;;;6.37;100.00;152996.22;5092815;28;20943;-77
2023/04/13 06:22:53;;;;;;;5.50;0.93;;;;;;;6.39;100.00;153002.66;5047878;28;20454;-78
2023/04/13 06:25:21;;;;;;;4.03;1.97;;;;;;;6.45;99.44;153016.88;5070623;28;20768;-75
2023/04/13 06:27:49;;;;;;;1.67;0.87;;;;;;;6.48;99.19;153024.63;5062357;28;20506;-78
2023/04/13 06:30:16;;;;;;;2.63;1.30;;;;;;;6.53;100.00;153037.50;5085677;28;20465;-75
2023/04/13 06:32:44;;;;;;;4.90;1.03;;;;;;;6.59;99.28;153053.00;5051125;28;20598;-75
2023/04/13 06:35:11;;;;;;;1.57;0.93;;;;;;;6.63;99.56;153064.63;5069770;28;21460;-76
2023/04/13 06:37:44;;;;;;;1.10;0.90;;;;;;;6.67;98.45;153074.91;5062111;28;20484;-76
2023/04/13 06:40:16;;;;;;;4.07;0.80;;;;;;;6.78;98.81;153102.03;5053795;28;20446;-76
2023/04/13 06:42:59;;;;;;;2.00;1.20;;;;;;;7.10;100.00;153183.34;5046856;28;20488;-76
2023/04/13 06:45:58;;;;;;;1.83;0.90;;;;;;;7.67;99.18;153330.59;5060535;28;20469;-76
2023/04/13 06:48:26;;;;;;;2.47;1.30;;;;;;;8.19;95.41;153463.66;5069893;28;20453;-76
2023/04/13 06:50:58;;;;;;;2.40;1.20;;;;;;;8.50;94.66;153543.84;5053344;28;21068;-76
2023/04/13 06:53:26;;;;;;;1.63;0.97;;;;;;;8.76;91.91;153609.81;5070085;28;20518;-78
2023/04/13 06:55:54;;;;;;;2.37;1.60;;;;;;;8.88;90.22;153639.50;5053792;28;20499;-75
2023/04/13 06:58:21;;;;;;;2.20;1.03;;;;;;;9.03;91.47;153678.28;5071096;28;20505;-75
2023/04/13 07:00:49;;;;;;;1.53;0.90;;;;;;;8.95;89.65;153657.59;5067298;28;20527;-77
2023/04/13 07:03:16;;;;;;;1.90;1.10;;;;;;;8.89;92.12;153643.41;5062406;28;21064;-77
2023/04/13 07:05:43;;;;;;;3.37;0.87;;;;;;;8.67;88.55;153586.50;5065325;28;20520;-76
2023/04/13 07:08:14;;;;;;;4.53;1.07;;;;;;;8.70;88.95;153592.97;5068068;28;20481;-76
2023/04/13 07:10:43;;;;;;;3.43;1.17;;;;;;;8.75;87.34;153605.91;5065064;28;21034;-76
2023/04/13 07:13:19;;;;;;;1.70;1.00;;;;;;;8.72;87.97;153598.13;5067622;28;20540;-76
2023/04/13 07:15:46;;;;;;;2.60;1.10;;;;;;;8.63;88.95;153576.13;5053379;28;20474;-76
2023/04/13 07:18:14;;;;;;;3.40;1.00;;;;;;;8.49;89.54;153541.28;5084941;28;20514;-76
2023/04/13 07:20:41;;;;;;;1.50;1.10;;;;;;;8.43;89.38;153524.47;5086296;28;20469;-76
2023/04/13 07:23:09;;;;;;;2.20;1.00;;;;;;;8.37;90.09;153508.94;5070685;28;20490;-77
2023/04/13 07:25:36;;;;;;;3.33;1.80;;;;;;;8.24;87.20;153476.59;5068726;28;20967;-77
2023/04/13 07:28:04;;;;;;;1.50;1.00;;;;;;;8.24;89.95;153476.59;5049726;28;20452;-76
2023/04/13 07:30:33;;;;;;;2.77;1.17;;;;;;;8.20;90.62;153466.28;5052601;28;20824;-76
2023/04/13 07:33:00;;;;;;;1.93;1.13;;;;;;;8.15;90.26;153452.03;5070388;28;20965;-76
2023/04/13 07:35:27;;;;;;;2.30;1.17;;;;;;;8.11;89.88;153443.00;5053836;28;20457;-76
2023/04/13 07:37:55;;;;;;;2.90;1.07;;;;;;;8.06;87.39;153430.06;5063561;28;20465;-76
2023/04/13 07:40:22;;;;;;;2.30;1.00;;;;;;;8.03;89.26;153422.31;5071452;28;20532;-76
2023/04/13 07:42:52;;;;;;;2.17;1.17;;;;;;;8.03;91.74;153422.31;5069096;28;20533;-75
2023/04/13 07:45:20;;;;;;;1.43;0.87;;;;;;;8.04;90.58;153423.63;5086754;28;20473;-75
2023/04/13 07:47:48;;;;;;;2.47;1.13;;;;;;;8.02;94.17;153419.75;5051731;28;20457;-75
2023/04/13 07:50:16;;;;;;;1.63;1.00;;;;;;;8.00;91.39;153414.53;5054083;28;20461;-77
2023/04/13 07:52:45;;;;;;;4.47;1.00;;;;;;;8.04;91.75;153424.91;5062581;28;22199;-77
2023/04/13 07:55:13;;;;;;;2.37;1.00;;;;;;;8.09;93.11;153436.53;5046903;28;20468;-77
2023/04/13 07:57:46;;;;;;;2.50;1.50;;;;;;;8.04;91.63;153423.63;5052155;28;20884;-77
2023/04/13 08:00:15;;;;;;;2.13;1.00;;;;;;;8.08;93.60;153435.22;5066659;28;20453;-77
2023/04/13 08:02:46;;;;;;;4.47;1.20;;;;;;;8.07;91.36;153432.66;5049056;28;20499;-77
2023/04/13 08:05:19;;;;;;;2.80;1.60;;;;;;;8.19;92.84;153462.38;5056793;28;20461;-77
2023/04/13 08:07:48;;;;;;;3.40;1.50;;;;;;;8.24;95.01;153476.59;5052204;28;20453;-74
2023/04/13 08:10:16;;;;;;;2.90;1.20;;;;;;;8.32;95.32;153497.31;5047539;28;20483;-77
2023/04/13 08:12:43;;;;;;;6.20;1.20;;;;;;;8.41;96.71;153519.28;5075632;28;20460;-75
2023/04/13 08:15:11;;;;;;;4.20;1.43;;;;;;;8.51;93.71;153546.44;5065124;28;20530;-76
2023/04/13 08:17:38;;;;;;;2.90;1.33;;;;;;;8.74;94.92;153603.28;5064699;28;20533;-76
2023/04/13 08:20:07;;;;;;;4.70;1.20;;;;;;;8.91;94.29;153647.28;5051101;28;20484;-76
2023/04/13 08:22:36;;;;;;;3.40;1.50;;;;;;;8.89;88.63;153643.41;5063769;28;20535;-76
2023/04/13 08:25:05;;;;;;;3.20;1.43;;;;;;;8.87;88.79;153636.94;5061325;28;20449;-75
2023/04/13 08:27:33;;;;;;;2.50;1.47;;;;;;;8.87;88.15;153638.22;5085875;28;20479;-76
2023/04/13 08:30:00;;;;;;;3.40;1.40;;;;;;;8.91;88.36;153647.28;5049861;28;20511;-76
2023/04/13 08:32:29;;;;;;;3.67;1.10;;;;;;;8.95;90.29;153657.59;5062466;28;20469;-76
2023/04/13 08:34:57;;;;;;;6.23;1.83;;;;;;;8.94;89.58;153655.03;5067869;28;20543;-76
2023/04/13 08:37:25;;;;;;;4.10;1.43;;;;;;;8.92;85.89;153649.88;5062953;28;20434;-76
2023/04/13 08:39:58;;;;;;;2.97;1.23;;;;;;;8.97;89.76;153664.09;5064878;28;20481;-76
2023/04/13 08:42:26;;;;;;;2.17;1.13;;;;;;;8.98;88.21;153665.34;5087766;28;20449;-75
2023/04/13 08:44:57;;;;;;;6.37;1.57;;;;;;;9.00;91.16;153670.56;5089516;28;20820;-76
2023/04/13 08:47:26;;;;;;;2.63;1.37;;;;;;;8.95;90.04;153658.91;5090734;28;20449;-76
2023/04/13 08:49:53;;;;;;;2.50;1.07;;;;;;;8.91;91.72;153648.56;5060870;28;20553;-76
2023/04/13 08:52:29;;;;;;;2.40;1.00;;;;;;;8.87;92.53;153636.94;5060901;28;20453;-76
2023/04/13 08:54:59;;;;;;;4.03;1.43;;;;;;;8.83;95.46;153627.88;5091289;28;20515;-76
2023/04/13 08:57:30;;;;;;;5.10;1.70;;;;;;;8.81;94.40;153622.72;5048304;28;20995;-76
2023/04/13 08:59:58;;;;;;;2.10;1.13;;;;;;;8.87;95.71;153638.22;5051675;28;20476;-76
2023/04/13 09:02:29;;;;;;;2.97;1.27;;;;;;;8.91;94.70;153647.28;5073276;28;20429;-83
2023/04/13 09:05:05;;;;;;;2.90;1.43;;;;;;;8.91;94.35;153647.28;5092005;28;20453;-82
2023/04/13 09:07:35;;;;;;;6.07;1.50;;;;;;;8.88;93.20;153639.50;5054682;28;20461;-82
2023/04/13 09:10:10;;;;;;;3.03;1.50;;;;;;;8.88;92.58;153639.50;5053850;28;20551;-82
2023/04/13 09:12:40;;;;;;;5.10;1.47;;;;;;;8.92;93.56;153649.88;5057690;28;20445;-82
2023/04/13 09:15:08;;;;;;;3.23;1.40;;;;;;;8.95;93.91;153658.91;5072282;28;20446;-82
2023/04/13 09:17:43;;;;;;;2.50;1.00;;;;;;;8.97;89.85;153662.81;5072788;28;20564;-83
2023/04/13 09:20:13;;;;;;;3.40;1.50;;;;;;;9.04;89.39;153680.88;5061538;28;20478;-82
2023/04/13 09:22:40;;;;;;;4.10;1.50;;;;;;;9.13;89.71;153704.19;5093196;28;20494;-82
2023/04/13 09:25:18;;;;;;;3.63;1.23;;;;;;;9.21;89.47;153723.59;5092255;28;20452;-82
2023/04/13 09:27:45;;;;;;;6.33;1.57;;;;;;;9.33;91.21;153755.91;5074149;28;20842;-82
2023/04/13 09:30:13;;;;;;;2.50;1.33;;;;;;;9.49;90.10;153797.31;5092641;28;20444;-83
2023/04/13 09:32:40;;;;;;;2.77;1.40;;;;;;;9.65;84.24;153838.72;5073246;28;20986;-83
2023/04/13 09:35:08;;;;;;;2.23;1.07;;;;;;;9.79;84.14;153874.91;5074746;28;20458;-83
2023/04/13 09:37:36;;;;;;;3.20;1.10;;;;;;;9.91;82.72;153904.69;5051016;28;20793;-82
2023/04/13 09:40:12;;;;;;;1.80;1.30;;;;;;;10.06;82.80;153942.25;5087906;28;20474;-83
2023/04/13 09:42:40;;;;;;;5.23;1.50;;;;;;;10.20;87.88;153978.50;5071986;28;20507;-82
2023/04/13 09:45:07;;;;;;;1.90;1.23;;;;;;;10.24;83.13;153988.88;5076280;28;20548;-83
2023/04/13 09:47:39;;;;;;;2.67;1.50;;;;;;;10.27;82.24;153996.66;5076021;28;20481;-83
2023/04/13 09:50:16;;;;;;;2.73;1.53;;;;;;;10.26;80.49;153994.03;5085971;28;20441;-83
2023/04/13 09:52:43;;;;;;;3.90;1.07;;;;;;;10.27;79.21;153996.66;5057882;28;20442;-83
2023/04/13 09:55:16;;;;;;;2.40;1.07;;;;;;;10.29;80.75;154003.13;5094499;28;20841;-83
2023/04/13 09:57:43;;;;;;;2.23;1.13;;;;;;;10.32;83.02;154009.59;5075182;28;20532;-83
2023/04/13 10:00:15;;;;;;;2.60;1.10;;;;;;;10.26;79.52;153994.03;5074594;28;20479;-83
2023/04/13 10:02:42;;;;;;;5.20;1.90;;;;;;;10.30;84.23;154004.38;5089417;28;20446;-83
2023/04/13 10:05:10;;;;;;;1.80;1.07;;;;;;;10.17;79.28;153970.72;5090373;28;20544;-83
2023/04/13 10:07:38;;;;;;;4.77;1.60;;;;;;;10.21;83.68;153981.09;5071333;28;20866;-83
2023/04/13 10:10:06;;;;;;;3.50;0.93;;;;;;;10.22;86.20;153983.66;5086565;28;20461;-76
2023/04/13 10:12:36;;;;;;;2.20;0.80;;;;;;;10.10;82.78;153953.88;5045771;28;20453;-76
2023/04/13 10:15:42;;;;;;;3.97;1.10;;;;;;;10.07;83.24;153944.81;5085899;28;20541;-77
2023/04/13 10:18:16;;;;;;;2.43;1.40;;;;;;;10.09;79.60;153949.97;5086060;28;20944;-77
2023/04/13 10:20:43;;;;;;;2.67;1.13;;;;;;;10.10;84.14;153953.88;5085942;28;20467;-84
2023/04/13 10:23:10;;;;;;;3.17;1.10;;;;;;;10.01;80.75;153929.25;5062189;28;20831;-84
2023/04/13 10:25:38;;;;;;;5.00;1.10;;;;;;;10.03;81.38;153934.47;5085688;28;20540;-84
2023/04/13 10:28:06;;;;;;;3.93;1.77;;;;;;;9.95;81.95;153915.06;5087270;28;20806;-83
2023/04/13 10:30:33;;;;;;;4.17;1.20;;;;;;;9.96;86.59;153916.31;5086056;28;21320;-83
2023/04/13 10:33:04;;;;;;;3.53;1.33;;;;;;;9.93;84.90;153908.59;5059378;28;20465;-84
2023/04/13 10:35:35;;;;;;;3.37;1.17;;;;;;;9.94;81.31;153911.16;5086016;28;20437;-83
2023/04/13 10:38:02;;;;;;;2.30;1.07;;;;;;;10.04;86.66;153938.34;5077666;28;20439;-83
2023/04/13 10:40:29;;;;;;;2.73;0.93;;;;;;;9.98;82.75;153922.78;5070735;28;20479;-83
2023/04/13 10:42:56;;;;;;;2.80;1.13;;;;;;;10.04;84.69;153937.03;5057507;28;20830;-84
2023/04/13 10:45:26;;;;;;;4.43;1.17;;;;;;;10.04;81.70;153938.34;5070950;28;20492;-84
2023/04/13 10:47:53;;;;;;;2.33;1.30;;;;;;;10.08;81.46;153947.41;5063843;28;20449;-83
2023/04/13 10:50:21;;;;;;;4.53;1.80;;;;;;;10.06;81.59;153942.25;5089238;28;20481;-84
2023/04/13 10:53:00;;;;;;;2.27;1.10;;;;;;;10.04;79.39;153937.03;5088211;28;20825;-84
2023/04/13 10:55:27;;;;;;;3.23;1.13;;;;;;;10.03;80.85;153934.47;5079528;28;20486;-83
2023/04/13 10:57:55;;;;;;;3.97;1.20;;;;;;;10.04;83.43;153937.03;5087972;28;20493;-83
2023/04/13 11:00:22;;;;;;;1.73;1.03;;;;;;;9.95;77.67;153913.75;5056424;28;20561;-84
2023/04/13 11:02:52;;;;;;;2.67;1.00;;;;;;;9.96;79.98;153916.31;5072521;28;20974;-83
2023/04/13 11:05:21;;;;;;;7.50;2.50;;;;;;;9.94;77.90;153911.16;5066936;28;20503;-84
2023/04/13 11:07:48;;;;;;;3.40;1.30;;;;;;;9.93;77.22;153909.84;5070161;28;20452;-83
2023/04/13 11:10:15;;;;;;;2.70;1.30;;;;;;;9.96;81.06;153916.31;5088768;28;20453;-83
2023/04/13 11:12:50;;;;;;;3.03;1.30;;;;;;;9.98;83.48;153922.78;5085580;28;20438;-84
2023/04/13 11:15:20;;;;;;;3.83;1.20;;;;;;;9.94;81.56;153911.16;5088480;28;20537;-84
2023/04/13 11:17:53;;;;;;;2.80;1.20;;;;;;;9.92;81.77;153906.00;5086457;28;20484;-83
2023/04/13 11:20:30;;;;;;;2.30;1.13;;;;;;;9.91;80.94;153903.38;5053416;28;20829;-83
2023/04/13 11:22:57;;;;;;;1.50;1.00;;;;;;;9.97;81.83;153918.91;5086797;28;20452;-84
2023/04/13 11:25:24;;;;;;;2.20;1.10;;;;;;;10.04;82.68;153938.34;5062544;28;20458;-84
2023/04/13 11:27:55;;;;;;;3.10;1.30;;;;;;;10.03;79.06;153935.78;5086452;28;20568;-84
2023/04/13 11:30:22;;;;;;;3.40;1.90;;;;;;;10.12;81.68;153957.72;5056180;28;20497;-84
2023/04/13 11:32:49;;;;;;;2.70;1.33;;;;;;;10.14;83.68;153963.00;5053345;28;20457;-84
2023/04/13 11:35:17;;;;;;;1.60;1.10;;;;;;;10.11;81.94;153955.19;5069665;28;20461;-83
2023/04/13 11:37:45;;;;;;;3.43;1.23;;;;;;;10.15;87.34;153966.88;5086103;28;20477;-82
2023/04/13 11:40:15;;;;;;;2.20;1.37;;;;;;;10.12;92.34;153959.09;5088655;28;20481;-82